Time;durP1;ratioP1;P1;durP2;ratioP2;P2;SDS_P1;SDS_P2;PMS_P1;PMS_P2;Temp;Humidity;BMP_temperature;BMP_pressure;BME280_temperature;BME280_humidity;BME280_pressure;Samples;Min_cycle;Max_cycle;Signal;HPM_P1;HPM_P2
2021/01/25 00:04:34;;;;;;;3.37;2.43;;;;;;;7.72;99.36;92859.81;10496443;28;20263;-70
2021/01/25 00:09:35;;;;;;;7.20;2.60;;;;;;;7.73;97.40;92825.84;10496028;28;20102;-70
2021/01/25 00:14:35;;;;;;;4.70;1.95;;;;;;;7.71;98.34;92839.53;10477559;28;20278;-71
2021/01/25 00:19:35;;;;;;;5.67;3.87;;;;;;;7.41;100.00;92846.31;10496011;28;20032;-71
2021/01/25 00:24:36;;;;;;;7.18;4.45;;;;;;;7.49;100.00;92827.72;10495503;28;20279;-71
2021/01/25 00:29:36;;;;;;;7.93;3.80;;;;;;;7.55;100.00;92803.53;10495422;28;20384;-71
2021/01/25 00:34:38;;;;;;;10.30;3.37;;;;;;;7.45;100.00;92808.03;10495147;28;20433;-71
2021/01/25 00:39:38;;;;;;;9.45;3.28;;;;;;;7.30;100.00;92830.50;10495539;28;20024;-71
2021/01/25 00:44:39;;;;;;;5.13;2.73;;;;;;;7.16;100.00;92819.84;10494492;28;20016;-70
2021/01/25 00:49:39;;;;;;;5.57;3.00;;;;;;;7.18;100.00;92820.31;10493618;28;20784;-70
2021/01/25 00:54:39;;;;;;;4.93;2.20;;;;;;;7.27;100.00;92798.25;10494186;28;20115;-71
2021/01/25 00:59:42;;;;;;;4.03;2.80;;;;;;;7.15;100.00;92817.47;10494125;28;20047;-71
2021/01/25 01:04:42;;;;;;;5.25;2.58;;;;;;;7.29;100.00;92806.75;10494302;28;20036;-71
2021/01/25 01:09:43;;;;;;;4.83;2.37;;;;;;;7.30;100.00;92777.06;10494179;28;20504;-71
2021/01/25 01:14:43;;;;;;;7.07;2.17;;;;;;;7.46;100.00;92808.78;10493288;28;20287;-72
2021/01/25 01:19:43;;;;;;;2.57;2.10;;;;;;;7.57;100.00;92796.00;10493712;28;20024;-72
2021/01/25 01:24:44;;;;;;;5.25;2.85;;;;;;;7.42;100.00;92821.97;10493654;28;20040;-72
2021/01/25 01:29:44;;;;;;;8.10;3.67;;;;;;;7.48;100.00;92814.63;10493129;28;20415;-72
2021/01/25 01:34:45;;;;;;;7.43;3.50;;;;;;;7.46;100.00;92812.25;10492839;28;20129;-72
2021/01/25 01:39:46;;;;;;;7.55;3.63;;;;;;;7.49;100.00;92779.59;10492430;28;20079;-72
2021/01/25 01:44:46;;;;;;;10.07;4.07;;;;;;;7.15;100.00;92796.09;10492422;28;20186;-71
2021/01/25 01:49:49;;;;;;;5.00;3.28;;;;;;;7.12;100.00;92792.13;10491863;28;20055;-72
2021/01/25 01:54:53;;;;;;;8.57;3.70;;;;;;;7.26;100.00;92773.41;10492475;28;20032;-72
2021/01/25 01:59:54;;;;;;;4.10;3.08;;;;;;;7.12;100.00;92794.03;10491347;28;20542;-71
2021/01/25 02:04:54;;;;;;;6.97;3.45;;;;;;;7.02;100.00;92795.03;10492216;28;20043;-71
2021/01/25 02:09:58;;;;;;;8.18;3.40;;;;;;;7.18;100.00;92806.19;10491759;28;20074;-71
2021/01/25 02:15:02;;;;;;;9.02;4.18;;;;;;;7.04;100.00;92805.41;10491115;28;20104;-71
2021/01/25 02:20:11;;;;;;;10.57;4.18;;;;;;;6.98;100.00;92807.41;10473448;28;20468;-71
2021/01/25 02:25:29;;;;;;;9.75;5.13;;;;;;;6.93;100.00;92802.94;10491160;28;20028;-72
2021/01/25 02:30:30;;;;;;;9.57;4.55;;;;;;;7.08;100.00;92788.47;10490918;28;20483;-72
2021/01/25 02:35:32;;;;;;;9.25;4.05;;;;;;;7.06;100.00;92793.34;10472281;28;20772;-71
2021/01/25 02:40:33;;;;;;;10.02;4.13;;;;;;;7.12;100.00;92792.13;10489914;28;20498;-72
2021/01/25 02:45:34;;;;;;;6.07;3.80;;;;;;;7.13;100.00;92819.63;10490560;28;20021;-71
2021/01/25 02:50:34;;;;;;;9.20;4.22;;;;;;;7.23;100.00;92802.59;10490454;28;20031;-71
2021/01/25 02:55:34;;;;;;;7.03;4.13;;;;;;;7.11;100.00;92813.81;10489646;28;20444;-71
2021/01/25 03:00:35;;;;;;;7.07;4.03;;;;;;;7.06;100.00;92825.41;10489716;28;20274;-71
2021/01/25 03:05:35;;;;;;;7.32;4.18;;;;;;;7.17;100.00;92850.00;10489708;28;20332;-71
2021/01/25 03:10:36;;;;;;;7.05;4.10;;;;;;;7.32;100.00;92849.69;10489151;28;20449;-72
2021/01/25 03:15:39;;;;;;;9.73;4.68;;;;;;;7.16;100.00;92840.44;10488782;28;20033;-72
2021/01/25 03:20:39;;;;;;;8.00;3.38;;;;;;;7.34;100.00;92831.50;10489139;28;20048;-71
2021/01/25 03:25:40;;;;;;;5.90;3.90;;;;;;;7.37;100.00;92838.13;10488906;28;20048;-71
2021/01/25 03:30:40;;;;;;;6.60;3.60;;;;;;;7.46;100.00;92841.66;10488867;28;20507;-71
2021/01/25 03:35:42;;;;;;;7.50;4.30;;;;;;;7.44;100.00;92841.16;10471073;28;20033;-71
2021/01/25 03:40:43;;;;;;;7.28;3.35;;;;;;;7.39;100.00;92816.44;10488539;28;20059;-70
2021/01/25 03:45:43;;;;;;;8.43;2.73;;;;;;;7.49;100.00;92819.69;10488766;28;20112;-72
2021/01/25 03:50:43;;;;;;;13.18;3.22;;;;;;;7.56;100.00;92821.94;10488008;28;20024;-71
2021/01/25 03:55:47;;;;;;;6.20;3.50;;;;;;;7.65;100.00;92792.63;10488382;28;20032;-71
2021/01/25 04:00:47;;;;;;;6.30;3.45;;;;;;;7.47;100.00;92810.38;10488444;28;20087;-70
2021/01/25 04:05:48;;;;;;;7.03;2.57;;;;;;;7.36;100.00;92831.19;10488173;28;20090;-71
2021/01/25 04:10:48;;;;;;;8.10;5.47;;;;;;;7.47;100.00;92847.81;10487875;28;20294;-71
2021/01/25 04:15:49;;;;;;;7.38;3.53;;;;;;;7.37;100.00;92848.81;10488182;28;20028;-71
2021/01/25 04:20:49;;;;;;;7.00;3.60;;;;;;;7.56;100.00;92842.53;10469945;28;20043;-71
2021/01/25 04:25:49;;;;;;;5.20;2.97;;;;;;;7.64;100.00;92853.28;10492491;28;20611;-71
2021/01/25 04:30:50;;;;;;;2.93;2.00;;;;;;;7.82;100.00;92842.75;10495183;28;20286;-71
2021/01/25 04:35:50;;;;;;;1.57;1.13;;;;;;;7.84;100.00;92795.91;10495187;28;20029;-72
2021/01/25 04:40:51;;;;;;;2.23;0.90;;;;;;;8.02;100.00;92790.66;10494910;28;20270;-71
2021/01/25 04:45:53;;;;;;;0.30;0.20;;;;;;;8.22;100.00;92784.03;10496441;28;20796;-69
2021/01/25 04:50:56;;;;;;;0.63;0.10;;;;;;;8.57;100.00;92812.88;10518946;28;20371;-71
2021/01/25 04:55:57;;;;;;;1.00;0.10;;;;;;;8.77;100.00;92766.03;10525542;28;20024;-71
2021/01/25 05:00:57;;;;;;;0.10;0.10;;;;;;;8.97;100.00;92783.44;10503000;28;20028;-71
2021/01/25 05:05:58;;;;;;;0.30;0.20;;;;;;;9.13;96.80;92810.59;10494066;28;20035;-71
2021/01/25 05:11:10;;;;;;;1.13;0.50;;;;;;;9.36;89.86;92824.66;10493541;28;20059;-73
2021/01/25 05:16:18;;;;;;;0.75;0.40;;;;;;;9.55;91.76;92837.81;10494294;28;20387;-72
2021/01/25 05:21:21;;;;;;;;;;;;;;;9.17;100.00;92838.34;10503178;28;20062;-68
2021/01/25 05:26:21;;;;;;;0.93;0.40;;;;;;;9.07;100.00;92842.09;10511887;28;19917;-68
2021/01/25 05:31:24;;;;;;;1.83;0.40;;;;;;;8.86;100.00;92856.03;10523895;28;20480;-68
2021/01/25 05:36:26;;;;;;;0.45;0.35;;;;;;;8.37;100.00;92898.75;10507671;28;20414;-68
2021/01/25 05:41:26;;;;;;;0.40;0.30;;;;;;;8.21;100.00;92916.25;10492185;28;20025;-68
2021/01/25 05:46:27;;;;;;;1.00;0.50;;;;;;;8.14;100.00;92919.34;10503486;28;20034;-69
2021/01/25 05:51:32;;;;;;;4.38;0.80;;;;;;;8.13;100.00;92915.06;10533373;28;20024;-68
2021/01/25 05:56:33;;;;;;;4.05;0.80;;;;;;;8.30;100.00;92914.44;10532657;28;20039;-68
2021/01/25 06:01:33;;;;;;;0.80;0.75;;;;;;;8.42;100.00;92918.44;10512569;28;20021;-69
2021/01/25 06:06:34;;;;;;;2.20;1.00;;;;;;;8.52;100.00;92937.75;10518956;28;20785;-69
2021/01/25 06:11:36;;;;;;;0.80;0.63;;;;;;;8.66;100.00;92932.34;10527897;28;20032;-69
2021/01/25 06:16:36;;;;;;;0.93;0.35;;;;;;;8.76;100.00;92939.31;10525008;28;20027;-69
2021/01/25 06:21:40;;;;;;;1.33;0.50;;;;;;;8.85;100.00;92942.84;10529580;28;20043;-69
2021/01/25 06:26:41;;;;;;;1.52;1.35;;;;;;;8.93;100.00;92946.69;10480702;28;20138;-69
2021/01/25 06:31:41;;;;;;;0.60;0.60;;;;;;;8.91;100.00;92948.09;10497874;28;20038;-69
2021/01/25 06:36:42;;;;;;;0.67;0.50;;;;;;;9.03;100.00;92945.66;10489558;28;20041;-69
2021/01/25 06:41:42;;;;;;;1.88;0.70;;;;;;;9.02;100.00;92944.06;10511505;28;20298;-69
2021/01/25 06:46:43;;;;;;;3.00;0.75;;;;;;;8.99;100.00;92956.19;10471626;28;20537;-70
2021/01/25 06:51:43;;;;;;;3.03;0.60;;;;;;;8.89;100.00;92940.38;10509553;28;20028;-69
2021/01/25 06:56:44;;;;;;;1.02;0.60;;;;;;;8.80;100.00;92942.19;10530367;28;20340;-68
2021/01/25 07:01:49;;;;;;;0.80;0.50;;;;;;;8.85;100.00;92968.88;10530727;28;20024;-69
2021/01/25 07:06:54;;;;;;;1.38;0.95;;;;;;;8.69;100.00;92968.44;10530656;28;20357;-68
2021/01/25 07:11:57;;;;;;;3.33;1.10;;;;;;;8.65;100.00;92994.22;10506194;28;20024;-68
2021/01/25 07:16:58;;;;;;;2.05;0.90;;;;;;;8.79;100.00;92991.50;10521287;28;20024;-70
2021/01/25 07:22:00;;;;;;;2.15;1.27;;;;;;;8.83;100.00;93017.38;10511125;28;20052;-70
2021/01/25 07:27:00;;;;;;;3.20;1.17;;;;;;;8.93;100.00;93010.19;10522696;28;20107;-71
2021/01/25 07:32:01;;;;;;;1.47;1.20;;;;;;;8.86;100.00;93022.13;10501316;28;20496;-70
2021/01/25 07:37:01;;;;;;;2.70;1.10;;;;;;;8.71;100.00;93019.81;10488358;28;20279;-69
2021/01/25 07:42:02;;;;;;;1.45;1.00;;;;;;;8.48;100.00;93010.97;10526192;28;20483;-69
2021/01/25 07:47:04;;;;;;;1.23;0.77;;;;;;;7.71;100.00;93040.06;10530188;28;20028;-68
2021/01/25 07:52:15;;;;;;;4.32;1.35;;;;;;;7.70;100.00;93057.19;10524615;28;20029;-68
2021/01/25 07:57:23;;;;;;;2.00;1.10;;;;;;;7.64;100.00;93087.78;10511536;28;20090;-68
2021/01/25 08:02:26;;;;;;;2.43;1.97;;;;;;;6.57;100.00;93177.31;10496172;28;20115;-69
2021/01/25 08:07:27;;;;;;;2.65;1.48;;;;;;;5.43;100.00;93209.59;10496199;28;20107;-69
2021/01/25 08:12:27;;;;;;;1.75;1.00;;;;;;;4.58;100.00;93246.03;10496045;28;20033;-68
2021/01/25 08:17:34;;;;;;;1.90;0.50;;;;;;;4.27;100.00;93259.44;10495708;28;20078;-70
2021/01/25 08:22:42;;;;;;;1.85;0.95;;;;;;;3.68;100.00;93292.72;10494951;28;20314;-70
2021/01/25 08:27:43;;;;;;;;;;;;;;;3.23;100.00;93318.97;10488239;28;20113;-68
2021/01/25 08:32:47;;;;;;;3.45;1.52;;;;;;;2.97;100.00;93349.94;10534263;28;19916;-69
2021/01/25 08:37:48;;;;;;;3.42;2.00;;;;;;;2.38;100.00;93354.44;10535846;28;20495;-69
2021/01/25 08:42:48;;;;;;;3.75;1.00;;;;;;;2.22;100.00;93372.09;10530807;28;20028;-68
2021/01/25 08:47:49;;;;;;;3.40;1.20;;;;;;;1.99;100.00;93348.63;10494981;28;20383;-68
2021/01/25 08:53:16;;;;;;;2.55;1.30;;;;;;;1.74;100.00;93365.09;10494695;28;20784;-69
2021/01/25 08:58:24;;;;;;;6.00;1.40;;;;;;;2.02;100.00;93358.69;10494421;28;20040;-69
2021/01/25 09:03:25;;;;;;;2.40;1.75;;;;;;;2.24;100.00;93357.81;10517342;28;20036;-69
2021/01/25 09:08:25;;;;;;;2.80;1.35;;;;;;;2.51;100.00;93366.47;10501927;28;20388;-69
2021/01/25 09:13:26;;;;;;;6.68;1.05;;;;;;;2.61;100.00;93380.81;10534388;28;20031;-69
2021/01/25 09:18:26;;;;;;;5.83;1.07;;;;;;;3.22;100.00;93391.72;10534883;28;20093;-69
2021/01/25 09:23:27;;;;;;;1.83;0.85;;;;;;;4.73;100.00;93398.72;10535350;28;20294;-69
2021/01/25 09:28:27;;;;;;;1.37;0.63;;;;;;;4.44;100.00;93423.25;10535100;28;20028;-69
2021/01/25 09:33:27;;;;;;;3.80;1.63;;;;;;;4.32;100.00;93417.41;10533754;28;20028;-68
2021/01/25 09:38:28;;;;;;;1.35;0.70;;;;;;;4.41;100.00;93405.16;10534501;28;20028;-70
2021/01/25 09:43:28;;;;;;;2.20;0.83;;;;;;;5.33;100.00;93400.69;10531953;28;20035;-69
2021/01/25 09:48:29;;;;;;;0.70;0.40;;;;;;;6.47;100.00;93398.91;10519089;28;20281;-69
2021/01/25 09:53:29;;;;;;;0.77;0.77;;;;;;;7.60;89.74;93384.34;10528301;28;20042;-69
2021/01/25 09:58:30;;;;;;;2.57;0.50;;;;;;;7.99;79.24;93382.50;10492305;28;20279;-69
2021/01/25 10:03:30;;;;;;;5.28;0.77;;;;;;;9.00;75.30;93374.97;10491784;28;20030;-69
2021/01/25 10:08:31;;;;;;;0.70;0.65;;;;;;;10.19;63.48;93363.38;10490505;28;20036;-69
2021/01/25 10:13:32;;;;;;;1.80;1.20;;;;;;;12.04;55.64;93368.50;10491344;28;20498;-69
2021/01/25 10:18:33;;;;;;;3.85;0.90;;;;;;;12.62;51.99;93382.56;10491271;28;20043;-69
2021/01/25 10:23:33;;;;;;;4.37;1.00;;;;;;;14.12;45.80;93372.78;10490400;28;20507;-69
2021/01/25 10:28:34;;;;;;;2.00;0.90;;;;;;;16.89;38.83;93342.19;10491035;28;20271;-69
2021/01/25 10:33:34;;;;;;;3.20;1.50;;;;;;;18.06;35.27;93352.81;10490612;28;20464;-69
2021/01/25 10:38:35;;;;;;;2.20;0.90;;;;;;;19.52;34.07;93358.78;10496201;28;20293;-69
2021/01/25 10:43:35;;;;;;;7.93;1.10;;;;;;;19.61;33.34;93342.19;10490456;28;20025;-69
2021/01/25 10:48:36;;;;;;;12.03;2.33;;;;;;;20.32;31.98;93344.44;10501385;28;20043;-69
2021/01/25 10:53:36;;;;;;;3.47;1.38;;;;;;;19.87;32.14;93344.19;10479152;28;20769;-69
2021/01/25 10:58:37;;;;;;;16.23;2.00;;;;;;;19.84;32.38;93358.53;10508212;28;20028;-70
2021/01/25 11:03:37;;;;;;;1.92;1.00;;;;;;;19.65;32.22;93348.47;10531529;28;20402;-71
2021/01/25 11:08:38;;;;;;;19.40;2.17;;;;;;;21.22;30.71;93350.19;10530940;28;20027;-71
2021/01/25 11:13:39;;;;;;;9.98;1.60;;;;;;;21.06;29.88;93353.94;10492674;28;20389;-71
2021/01/25 11:18:39;;;;;;;9.50;1.43;;;;;;;20.92;29.85;93349.09;10489153;28;20028;-69
2021/01/25 11:23:40;;;;;;;5.22;1.42;;;;;;;20.09;30.61;93349.94;10488849;28;21059;-71
2021/01/25 11:28:40;;;;;;;4.30;1.43;;;;;;;19.73;31.72;93360.25;10488095;28;20040;-70
2021/01/25 11:33:40;;;;;;;6.47;1.20;;;;;;;19.38;31.27;93380.31;10488518;28;20058;-70
2021/01/25 11:38:41;;;;;;;10.03;1.63;;;;;;;18.88;31.80;93374.72;10488897;28;20044;-70
2021/01/25 11:43:41;;;;;;;16.03;1.90;;;;;;;20.16;30.16;93371.84;10488216;28;20162;-70
2021/01/25 11:48:41;;;;;;;12.23;2.43;;;;;;;18.19;32.76;93377.94;10488450;28;20036;-70
2021/01/25 11:53:42;;;;;;;1.43;1.03;;;;;;;17.37;33.58;93369.38;10488298;28;20361;-69
2021/01/25 11:58:42;;;;;;;4.73;1.50;;;;;;;16.58;35.26;93374.28;10518037;28;20282;-69
2021/01/25 12:03:43;;;;;;;10.53;1.80;;;;;;;15.01;38.50;93384.44;10528674;28;20020;-69
2021/01/25 12:08:43;;;;;;;8.52;1.80;;;;;;;12.54;42.15;93396.84;10528488;28;20471;-69
2021/01/25 12:13:44;;;;;;;2.47;1.90;;;;;;;10.76;48.16;93400.47;10525341;28;20028;-69
2021/01/25 12:18:46;;;;;;;18.15;3.30;;;;;;;9.23;54.69;93416.09;10487985;28;20437;-69
2021/01/25 12:23:46;;;;;;;5.20;2.15;;;;;;;8.45;61.71;93418.50;10487560;28;20056;-69
2021/01/25 12:28:46;;;;;;;12.98;2.47;;;;;;;7.86;67.74;93421.47;10487682;28;20040;-69
2021/01/25 12:33:47;;;;;;;2.60;1.90;;;;;;;7.47;69.54;93433.19;10496380;28;20032;-69
2021/01/25 12:38:48;;;;;;;7.93;2.70;;;;;;;7.61;67.71;93433.28;10529378;28;20119;-69
2021/01/25 12:43:48;;;;;;;2.28;2.05;;;;;;;7.21;73.82;93441.47;10511195;28;20085;-69
2021/01/25 12:48:49;;;;;;;3.38;2.05;;;;;;;7.34;71.12;93440.03;10535219;28;20042;-69
2021/01/25 12:53:49;;;;;;;7.97;3.30;;;;;;;7.25;73.79;93441.72;10496693;28;20031;-69
2021/01/25 12:58:50;;;;;;;4.87;2.37;;;;;;;7.13;72.02;93442.91;10476567;28;20035;-69
2021/01/25 13:03:50;;;;;;;4.68;2.28;;;;;;;7.08;69.04;93442.94;10493973;28;20094;-69
2021/01/25 13:08:51;;;;;;;10.00;2.90;;;;;;;7.28;67.80;93449.16;10494017;28;20035;-69
2021/01/25 13:13:51;;;;;;;11.80;2.80;;;;;;;7.13;73.97;93450.91;10493644;28;20403;-69
2021/01/25 13:18:51;;;;;;;3.90;2.57;;;;;;;6.83;78.16;93441.31;10493387;28;20383;-69
2021/01/25 13:23:52;;;;;;;5.03;2.80;;;;;;;6.74;78.30;93440.31;10475475;28;20427;-69
2021/01/25 13:28:52;;;;;;;14.37;3.63;;;;;;;6.61;78.60;93434.56;10493336;28;20112;-69
2021/01/25 13:33:52;;;;;;;5.30;2.28;;;;;;;6.02;84.10;93444.34;10493112;28;20690;-69
2021/01/25 13:38:53;;;;;;;4.87;1.93;;;;;;;5.71;82.41;93454.38;10474390;28;20090;-69
2021/01/25 13:43:53;;;;;;;5.28;2.70;;;;;;;5.46;86.07;93448.06;10492888;28;20278;-69
2021/01/25 13:48:54;;;;;;;2.77;2.10;;;;;;;5.37;90.87;93447.84;10492813;28;20033;-69
2021/01/25 13:53:54;;;;;;;6.65;3.20;;;;;;;5.11;91.99;93461.22;10491396;28;20317;-69
2021/01/25 13:58:54;;;;;;;15.00;2.73;;;;;;;4.93;97.22;93451.16;10491638;28;20039;-69
2021/01/25 14:03:55;;;;;;;9.53;3.53;;;;;;;5.01;96.02;93463.09;10492841;28;20418;-69
2021/01/25 14:08:55;;;;;;;8.65;3.72;;;;;;;4.95;96.98;93454.31;10480699;28;20040;-69
2021/01/25 14:13:56;;;;;;;6.28;3.50;;;;;;;4.81;99.18;93447.97;10473587;28;20039;-69
2021/01/25 14:18:56;;;;;;;11.80;3.13;;;;;;;4.84;99.53;93452.75;10525026;28;20035;-69
2021/01/25 14:23:57;;;;;;;13.27;5.05;;;;;;;4.82;100.00;93465.53;10532611;28;20048;-69
2021/01/25 14:28:57;;;;;;;9.50;5.30;;;;;;;4.91;100.00;93459.41;10515558;28;20059;-69
2021/01/25 14:33:57;;;;;;;11.65;6.20;;;;;;;4.86;100.00;93456.75;10532079;28;20282;-69
2021/01/25 14:38:58;;;;;;;13.75;6.22;;;;;;;4.96;100.00;93453.25;10532140;28;20028;-69
2021/01/25 14:43:59;;;;;;;12.37;6.13;;;;;;;4.88;100.00;93477.75;10525242;28;20580;-69
2021/01/25 14:48:59;;;;;;;11.70;6.75;;;;;;;4.72;100.00;93483.09;10512826;28;20383;-68
2021/01/25 14:53:59;;;;;;;18.70;6.25;;;;;;;4.75;100.00;93493.22;10520756;28;20032;-69
2021/01/25 14:59:00;;;;;;;9.47;6.27;;;;;;;4.58;100.00;93500.69;10489112;28;20027;-69
2021/01/25 15:04:00;;;;;;;15.83;6.43;;;;;;;4.51;100.00;93503.59;10489611;28;20289;-69
2021/01/25 15:09:02;;;;;;;22.38;6.78;;;;;;;4.40;100.00;93486.03;10488723;28;20024;-69
2021/01/25 15:14:02;;;;;;;31.95;7.95;;;;;;;4.34;100.00;93487.09;10488939;28;20032;-69
2021/01/25 15:19:03;;;;;;;12.63;6.90;;;;;;;4.19;100.00;93494.00;10488521;28;20059;-69
2021/01/25 15:24:03;;;;;;;13.45;6.32;;;;;;;4.11;100.00;93494.50;10505441;28;20052;-69
2021/01/25 15:29:04;;;;;;;21.42;9.10;;;;;;;4.29;100.00;93498.53;10504920;28;20044;-69
2021/01/25 15:34:04;;;;;;;16.60;7.32;;;;;;;4.38;100.00;93491.63;10488547;28;20929;-69
2021/01/25 15:39:06;;;;;;;20.77;8.75;;;;;;;4.30;100.00;93497.47;10487621;28;20036;-69
2021/01/25 15:44:06;;;;;;;13.40;8.40;;;;;;;4.21;100.00;93517.66;10487984;28;20468;-69
2021/01/25 15:49:07;;;;;;;17.43;7.80;;;;;;;4.06;100.00;93526.38;10487932;28;20036;-69
2021/01/25 15:54:08;;;;;;;31.60;9.85;;;;;;;4.06;100.00;93535.19;10488037;28;20287;-69
2021/01/25 15:59:09;;;;;;;34.65;11.68;;;;;;;3.87;100.00;93537.50;10503147;28;20046;-69
2021/01/25 16:04:09;;;;;;;27.33;14.38;;;;;;;3.64;100.00;93552.03;10521884;28;20028;-69
2021/01/25 16:09:10;;;;;;;35.75;15.10;;;;;;;3.51;100.00;93565.78;10529739;28;20403;-69
2021/01/25 16:14:10;;;;;;;43.27;16.43;;;;;;;3.28;100.00;93574.94;10500145;28;20024;-69
2021/01/25 16:19:11;;;;;;;33.40;14.20;;;;;;;3.18;100.00;93570.34;10488738;28;20282;-69
2021/01/25 16:24:14;;;;;;;28.23;14.57;;;;;;;3.27;100.00;93566.19;10501084;28;20045;-69
2021/01/25 16:29:15;;;;;;;30.02;12.77;;;;;;;3.17;100.00;93576.75;10533619;28;20288;-71
2021/01/25 16:34:15;;;;;;;31.58;13.13;;;;;;;3.24;100.00;93572.00;10504118;28;20051;-69
2021/01/25 16:39:16;;;;;;;29.27;12.93;;;;;;;3.23;100.00;93576.50;10513910;28;20028;-69
2021/01/25 16:44:17;;;;;;;28.73;12.15;;;;;;;3.22;100.00;93574.94;10536280;28;20270;-69
2021/01/25 16:49:18;;;;;;;28.58;12.02;;;;;;;3.17;100.00;93566.91;10536249;28;20031;-69
2021/01/25 16:54:19;;;;;;;34.15;12.05;;;;;;;3.25;100.00;93563.78;10522733;28;20031;-68
2021/01/25 16:59:19;;;;;;;34.67;12.75;;;;;;;3.24;100.00;93564.84;10506695;28;20538;-70
2021/01/25 17:04:19;;;;;;;30.67;10.60;;;;;;;3.21;100.00;93560.03;10519163;28;20024;-69
2021/01/25 17:09:20;;;;;;;33.10;9.93;;;;;;;3.25;100.00;93558.47;10504316;28;20033;-69
2021/01/25 17:14:20;;;;;;;38.40;11.30;;;;;;;3.32;100.00;93563.56;10507231;28;20063;-69
2021/01/25 17:19:21;;;;;;;41.73;12.43;;;;;;;3.35;100.00;93563.03;10529372;28;20280;-69
2021/01/25 17:24:23;;;;;;;52.60;13.90;;;;;;;3.45;100.00;93572.94;10530847;28;20297;-68
2021/01/25 17:29:24;;;;;;;29.92;11.18;;;;;;;3.01;100.00;93586.44;10531950;28;20308;-68
2021/01/25 17:34:24;;;;;;;31.45;12.32;;;;;;;3.08;100.00;93574.56;10530648;28;20439;-68
2021/01/25 17:39:25;;;;;;;31.42;13.15;;;;;;;3.16;100.00;93575.94;10506653;28;20023;-68
2021/01/25 17:44:25;;;;;;;35.35;11.23;;;;;;;3.18;100.00;93570.34;10524401;28;20024;-70
2021/01/25 17:49:25;;;;;;;40.97;14.30;;;;;;;3.00;100.00;93576.88;10527104;28;20090;-69
2021/01/25 17:54:26;;;;;;;42.70;16.47;;;;;;;2.82;100.00;93581.53;10522381;28;20043;-69
2021/01/25 17:59:26;;;;;;;34.17;11.77;;;;;;;2.76;100.00;93571.91;10523396;28;20884;-69
2021/01/25 18:04:27;;;;;;;26.92;12.00;;;;;;;2.70;100.00;93562.31;10523108;28;20274;-69
2021/01/25 18:09:27;;;;;;;44.45;13.85;;;;;;;2.74;100.00;93547.50;10523541;28;20023;-69
2021/01/25 18:14:28;;;;;;;37.03;13.47;;;;;;;2.50;100.00;93539.88;10528119;28;20038;-68
2021/01/25 18:19:28;;;;;;;44.13;14.70;;;;;;;2.51;100.00;93536.19;10527264;28;20044;-68
2021/01/25 18:24:28;;;;;;;38.97;13.87;;;;;;;2.55;100.00;93534.63;10513725;28;20352;-68
2021/01/25 18:29:29;;;;;;;39.28;16.10;;;;;;;2.48;100.00;93518.09;10503191;28;20027;-68
2021/01/25 18:34:30;;;;;;;54.03;17.60;;;;;;;2.45;100.00;93502.69;10506338;28;20448;-69
2021/01/25 18:39:31;;;;;;;49.00;16.27;;;;;;;2.54;100.00;93493.25;10491470;28;20287;-70
2021/01/25 18:44:31;;;;;;;36.65;15.15;;;;;;;2.62;100.00;93505.22;10504573;28;20009;-70
2021/01/25 18:49:31;;;;;;;36.25;15.77;;;;;;;2.66;100.00;93514.28;10503756;28;20039;-69
2021/01/25 18:54:32;;;;;;;38.00;15.10;;;;;;;2.67;100.00;93512.44;10489847;28;20071;-69
2021/01/25 18:59:32;;;;;;;41.30;16.43;;;;;;;2.71;100.00;93495.75;10496839;28;20028;-69
2021/01/25 19:04:33;;;;;;;66.25;26.02;;;;;;;2.48;100.00;93490.78;10497534;28;20029;-69
2021/01/25 19:09:34;;;;;;;72.18;27.90;;;;;;;2.39;100.00;93499.22;10497512;28;20700;-69
2021/01/25 19:14:35;;;;;;;66.80;27.25;;;;;;;2.37;100.00;93490.72;10498050;28;20052;-68
2021/01/25 19:19:35;;;;;;;55.70;23.98;;;;;;;2.17;100.00;93486.03;10486867;28;20118;-68
2021/01/25 19:24:36;;;;;;;66.75;27.50;;;;;;;2.22;100.00;93480.00;10516351;28;20643;-69
2021/01/25 19:29:37;;;;;;;75.45;26.67;;;;;;;2.36;100.00;93453.88;10498964;28;20132;-69
2021/01/25 19:34:39;;;;;;;60.92;25.55;;;;;;;2.24;100.00;93432.03;10498162;28;20029;-69
2021/01/25 19:39:40;;;;;;;62.08;25.67;;;;;;;2.21;100.00;93450.00;10492689;28;20095;-69
2021/01/25 19:44:40;;;;;;;55.97;22.67;;;;;;;1.86;100.00;93448.66;10509147;28;20157;-69
2021/01/25 19:49:41;;;;;;;44.15;18.48;;;;;;;2.11;100.00;93422.63;10515617;28;20043;-69
2021/01/25 19:54:41;;;;;;;45.47;22.10;;;;;;;1.99;100.00;93423.59;10522757;28;20028;-69
2021/01/25 19:59:42;;;;;;;52.50;20.83;;;;;;;1.98;100.00;93443.22;10523650;28;20281;-69
2021/01/25 20:04:42;;;;;;;46.22;19.70;;;;;;;2.05;100.00;93419.13;10537256;28;20266;-69
2021/01/25 20:09:42;;;;;;;38.17;18.40;;;;;;;2.22;100.00;93408.41;10535881;28;20915;-69
2021/01/25 20:14:43;;;;;;;39.57;15.47;;;;;;;2.11;100.00;93422.63;10517194;28;20487;-70
2021/01/25 20:19:43;;;;;;;31.10;14.50;;;;;;;2.14;100.00;93428.22;10528166;28;20467;-69
2021/01/25 20:24:43;;;;;;;35.78;15.70;;;;;;;2.28;100.00;93411.91;10528234;28;20059;-69
2021/01/25 20:29:44;;;;;;;41.13;17.08;;;;;;;2.31;100.00;93406.09;10510969;28;20043;-69
2021/01/25 20:34:44;;;;;;;33.40;16.05;;;;;;;2.28;100.00;93407.41;10492771;28;20029;-69
2021/01/25 20:39:46;;;;;;;41.83;17.38;;;;;;;2.33;100.00;93394.19;10516888;28;20460;-69
2021/01/25 20:44:46;;;;;;;38.85;15.82;;;;;;;2.43;100.00;93393.44;10507635;28;20487;-69
2021/01/25 20:49:47;;;;;;;35.27;14.77;;;;;;;2.22;100.00;93406.56;10535879;28;20032;-69
2021/01/25 20:54:47;;;;;;;35.00;15.93;;;;;;;2.44;100.00;93388.94;10535004;28;20028;-69
2021/01/25 20:59:48;;;;;;;33.70;14.00;;;;;;;2.38;100.00;93396.06;10520033;28;20281;-69
2021/01/25 21:04:49;;;;;;;38.55;15.30;;;;;;;2.45;100.00;93380.72;10519403;28;20073;-69
2021/01/25 21:09:50;;;;;;;36.50;13.30;;;;;;;2.65;100.00;93371.28;10524187;28;20024;-69
2021/01/25 21:14:52;;;;;;;34.47;14.20;;;;;;;2.63;100.00;93394.63;10492335;28;20028;-69
2021/01/25 21:19:53;;;;;;;28.02;12.50;;;;;;;2.60;100.00;93408.41;10492372;28;20082;-70
2021/01/25 21:24:53;;;;;;;26.35;11.10;;;;;;;2.78;100.00;93368.19;10500420;28;20091;-69
2021/01/25 21:29:53;;;;;;;29.60;11.57;;;;;;;2.76;100.00;93375.59;10576053;28;20041;-69
2021/01/25 21:34:54;;;;;;;23.15;10.25;;;;;;;2.85;100.00;93395.28;10576171;28;20030;-69
2021/01/25 21:39:54;;;;;;;18.97;8.70;;;;;;;3.14;100.00;93378.97;10576195;28;20478;-69
2021/01/25 21:44:54;;;;;;;26.57;9.80;;;;;;;3.39;100.00;93356.16;10548177;28;20130;-69
2021/01/25 21:49:55;;;;;;;20.20;8.57;;;;;;;3.52;100.00;93371.63;10573708;28;20339;-69
2021/01/25 21:54:55;;;;;;;18.63;7.67;;;;;;;3.76;100.00;93376.44;10541720;28;20374;-70
2021/01/25 21:59:56;;;;;;;18.55;5.93;;;;;;;3.98;96.01;93356.78;10556484;28;20031;-68
2021/01/25 22:04:56;;;;;;;11.67;3.20;;;;;;;4.33;84.70;93358.63;10557029;28;20027;-69
2021/01/25 22:09:56;;;;;;;3.93;1.70;;;;;;;4.80;70.90;93346.03;10575026;28;20277;-68
2021/01/25 22:14:57;;;;;;;4.82;1.38;;;;;;;5.30;66.82;93351.41;10574823;28;20281;-69
2021/01/25 22:19:57;;;;;;;3.27;1.57;;;;;;;5.61;63.23;93370.72;10574375;28;20028;-69
2021/01/25 22:24:58;;;;;;;8.23;1.10;;;;;;;6.02;58.88;93352.88;10574332;28;20270;-69
2021/01/25 22:29:58;;;;;;;2.03;0.85;;;;;;;6.20;59.06;93352.19;10555675;28;20629;-69
2021/01/25 22:34:59;;;;;;;3.22;1.65;;;;;;;6.35;57.86;93372.63;10573964;28;20605;-69
2021/01/25 22:39:59;;;;;;;1.35;0.63;;;;;;;6.71;53.76;93363.47;10572492;28;20056;-69
2021/01/25 22:44:59;;;;;;;2.67;0.67;;;;;;;6.89;53.22;93354.72;10573032;28;20068;-69
2021/01/25 22:50:00;;;;;;;2.40;0.80;;;;;;;7.00;52.25;93356.22;10572542;28;20268;-69
2021/01/25 22:55:00;;;;;;;1.42;0.70;;;;;;;7.21;51.17;93339.94;10533594;28;20111;-69
2021/01/25 23:00:05;;;;;;;5.28;1.05;;;;;;;7.26;50.55;93342.56;10531115;28;20120;-69
2021/01/25 23:05:06;;;;;;;1.40;0.40;;;;;;;7.39;49.66;93338.38;10530439;28;20466;-69
2021/01/25 23:10:07;;;;;;;1.10;0.70;;;;;;;7.42;48.99;93339.69;10529622;28;20119;-69
2021/01/25 23:15:42;;;;;;;3.95;0.85;;;;;;;7.51;48.64;93333.41;10530432;28;20055;-70